createdAt,value
2022-08-18T00:02:30.141Z,87.65
2022-08-18T00:07:47.045Z,88.10
2022-08-18T00:10:18.963Z,88.25
2022-08-18T00:12:51.705Z,87.96
2022-08-18T00:15:25.990Z,88.13
2022-08-18T00:17:58.662Z,88.40
2022-08-18T00:20:31.057Z,87.85
2022-08-18T00:23:04.514Z,87.76
2022-08-18T00:25:38.016Z,87.71
2022-08-18T00:28:10.407Z,87.72
2022-08-18T00:30:43.550Z,87.71
2022-08-18T00:33:16.054Z,87.97
2022-08-18T00:35:49.988Z,87.69
2022-08-18T00:38:24.531Z,87.94
2022-08-18T00:40:58.763Z,87.77
2022-08-18T00:43:49.305Z,87.55
2022-08-18T00:46:26.142Z,87.86
2022-08-18T00:48:58.859Z,87.85
2022-08-18T00:51:48.702Z,87.53
2022-08-18T00:54:27.167Z,87.53
2022-08-18T00:57:06.479Z,87.87
2022-08-18T01:00:00.424Z,87.54
2022-08-18T01:02:37.457Z,87.44
2022-08-18T01:05:25.729Z,87.30
2022-08-18T01:07:58.668Z,87.70
2022-08-18T01:10:31.663Z,88.17
2022-08-18T01:13:06.058Z,88.10
2022-08-18T01:15:39.605Z,87.80
2022-08-18T01:18:32.502Z,87.64
2022-08-18T01:21:33.585Z,87.89
2022-08-18T01:24:08.505Z,88.14
2022-08-18T01:26:44.192Z,87.72
2022-08-18T01:29:19.240Z,87.59
2022-08-18T01:31:58.141Z,87.95
2022-08-18T01:34:30.914Z,87.97
2022-08-18T01:37:08.336Z,88.22
2022-08-18T01:41:23.095Z,87.73
2022-08-18T01:42:20.408Z,87.69
2022-08-18T01:44:53.701Z,87.56
2022-08-18T01:47:26.538Z,87.74
2022-08-18T01:50:00.824Z,87.67
2022-08-18T01:52:34.268Z,88.47
2022-08-18T01:55:08.184Z,88.38
2022-08-18T02:00:26.654Z,88.17
2022-08-18T02:03:02.067Z,87.83
2022-08-18T02:05:39.831Z,87.70
2022-08-18T02:08:13.307Z,87.73
2022-08-18T02:10:45.856Z,87.67
2022-08-18T02:13:18.883Z,87.91
2022-08-18T02:15:52.012Z,87.70
2022-08-18T02:18:47.387Z,88.01
2022-08-18T02:21:12.859Z,88.01
2022-08-18T02:23:52.943Z,88.02
2022-08-18T02:26:20.203Z,87.52
2022-08-18T02:28:53.119Z,87.78
2022-08-18T02:31:26.233Z,87.56
2022-08-18T02:33:59.732Z,87.59
2022-08-18T02:36:32.458Z,87.76
2022-08-18T02:39:05.096Z,88.19
2022-08-18T02:41:38.141Z,88.15
2022-08-18T02:44:10.952Z,88.21
2022-08-18T02:46:44.575Z,88.32
2022-08-18T02:49:17.075Z,88.64
2022-08-18T02:51:50.400Z,88.60
2022-08-18T02:54:24.075Z,88.67
2022-08-18T02:56:57.641Z,88.89
2022-08-18T02:59:32.068Z,88.63
2022-08-18T03:02:06.695Z,88.14
2022-08-18T03:04:39.145Z,88.63
2022-08-18T03:07:11.706Z,88.70
2022-08-18T03:09:44.760Z,88.53
2022-08-18T03:12:18.206Z,88.65
2022-08-18T03:14:51.076Z,88.52
2022-08-18T03:17:25.538Z,88.64
2022-08-18T03:19:58.353Z,88.97
2022-08-18T03:22:32.139Z,88.78
2022-08-18T03:25:05.089Z,88.51
2022-08-18T03:27:40.244Z,88.56
2022-08-18T03:30:13.508Z,88.84
2022-08-18T03:32:48.780Z,88.32
2022-08-18T03:35:20.446Z,88.11
2022-08-18T03:37:53.102Z,88.26
2022-08-18T03:40:26.713Z,88.68
2022-08-18T03:43:02.202Z,88.20
2022-08-18T03:45:36.274Z,87.63
2022-08-18T03:48:08.837Z,87.53
2022-08-18T03:50:41.420Z,87.63
2022-08-18T03:53:13.897Z,87.07
2022-08-18T03:55:46.869Z,86.59
2022-08-18T03:58:19.260Z,85.45
2022-08-18T04:00:51.682Z,85.00
2022-08-18T04:03:24.302Z,84.53
2022-08-18T04:05:58.125Z,84.60
2022-08-18T04:08:30.732Z,84.59
2022-08-18T04:11:03.104Z,84.61
2022-08-18T04:13:39.724Z,84.11
2022-08-18T04:16:12.984Z,83.68
2022-08-18T04:18:45.469Z,83.13
2022-08-18T04:21:18.680Z,83.00
2022-08-18T04:23:52.212Z,82.27
2022-08-18T04:26:26.440Z,82.06
2022-08-18T04:29:01.771Z,81.31
2022-08-18T04:31:35.257Z,81.08
2022-08-18T04:34:08.330Z,81.06
2022-08-18T04:36:41.346Z,80.74
2022-08-18T04:39:15.557Z,79.77
2022-08-18T04:41:48.894Z,78.94
2022-08-18T04:44:21.869Z,78.74
2022-08-18T04:49:39.997Z,77.38
2022-08-18T04:52:39.847Z,77.42
2022-08-18T04:55:06.054Z,77.22
2022-08-18T04:57:38.689Z,76.28
2022-08-18T05:00:15.059Z,75.45
2022-08-18T05:02:48.045Z,75.01
2022-08-18T05:05:20.612Z,74.32
2022-08-18T05:07:54.042Z,73.83
2022-08-18T05:10:27.219Z,73.13
2022-08-18T05:13:02.544Z,72.57
2022-08-18T05:15:59.489Z,71.88
2022-08-18T05:18:09.692Z,71.48
2022-08-18T05:20:43.884Z,70.76
2022-08-18T05:23:17.973Z,70.28
2022-08-18T05:25:51.087Z,69.55
2022-08-18T05:28:25.383Z,68.60
2022-08-18T05:31:00.530Z,68.60
2022-08-18T05:33:32.592Z,68.08
2022-08-18T05:36:19.111Z,67.35
2022-08-18T05:39:20.480Z,67.00
2022-08-18T05:42:09.489Z,66.14
2022-08-18T05:44:46.021Z,66.14
2022-08-18T05:47:32.655Z,66.42
2022-08-18T05:50:12.912Z,65.01
2022-08-18T05:52:58.631Z,64.27
2022-08-18T05:55:56.687Z,63.48
2022-08-18T05:58:36.783Z,62.93
2022-08-18T06:01:20.243Z,62.77
2022-08-18T06:04:03.041Z,62.21
2022-08-18T06:06:36.458Z,61.95
2022-08-18T06:09:22.570Z,61.34
2022-08-18T06:11:58.000Z,61.05
2022-08-18T06:14:30.463Z,60.17
2022-08-18T06:17:16.735Z,59.64
2022-08-18T06:20:15.030Z,59.50
2022-08-18T06:23:11.355Z,59.43
2022-08-18T06:26:17.953Z,59.77
2022-08-18T06:29:23.326Z,59.95
2022-08-18T06:32:02.203Z,58.14
2022-08-18T06:34:54.764Z,57.40
2022-08-18T06:38:24.159Z,57.17
2022-08-18T06:41:41.008Z,56.29
2022-08-18T06:44:10.051Z,56.16
2022-08-18T06:46:53.762Z,55.51
2022-08-18T06:50:03.580Z,55.31
2022-08-18T06:52:40.208Z,55.05
2022-08-18T06:55:18.520Z,54.02
2022-08-18T06:58:09.426Z,53.86
2022-08-18T07:00:56.261Z,52.47
2022-08-18T07:03:45.618Z,51.99
2022-08-18T07:06:29.690Z,51.68
2022-08-18T07:09:28.576Z,51.20
2022-08-18T07:12:20.528Z,50.40
2022-08-18T07:14:59.682Z,50.28
2022-08-18T07:17:43.465Z,49.70
2022-08-18T07:20:24.861Z,49.77
2022-08-18T07:23:01.869Z,48.99
2022-08-18T07:25:43.450Z,49.47
2022-08-18T07:28:39.544Z,49.05
2022-08-18T07:31:28.978Z,48.71
2022-08-18T07:34:26.967Z,49.25
2022-08-18T07:37:10.145Z,48.63
2022-08-18T07:40:06.443Z,48.33
2022-08-18T07:43:01.163Z,48.14
2022-08-18T07:45:44.607Z,47.54
2022-08-18T07:48:38.229Z,47.20
2022-08-18T07:51:37.133Z,47.87
2022-08-18T07:54:48.984Z,47.57
2022-08-18T07:57:41.998Z,47.57
2022-08-18T08:03:33.814Z,45.74
2022-08-18T08:06:35.375Z,44.40
2022-08-18T08:09:18.577Z,44.20
2022-08-18T08:11:58.049Z,44.95
2022-08-18T08:14:52.214Z,44.87
2022-08-18T08:17:36.782Z,44.74
2022-08-18T08:20:22.489Z,44.62
2022-08-18T08:23:23.412Z,44.24
2022-08-18T08:26:33.962Z,44.58
2022-08-18T08:29:12.299Z,44.87
2022-08-18T08:32:06.069Z,44.29
2022-08-18T08:35:04.954Z,44.26
2022-08-18T08:37:48.266Z,43.70
2022-08-18T08:40:46.834Z,43.34
2022-08-18T08:43:25.768Z,42.56
2022-08-18T08:46:24.171Z,42.82
2022-08-18T08:49:16.086Z,42.71
2022-08-18T08:51:55.156Z,42.77
2022-08-18T08:54:42.240Z,42.63
2022-08-18T08:57:16.140Z,43.01
2022-08-18T08:59:50.310Z,41.90
2022-08-18T09:02:48.260Z,42.88
2022-08-18T09:05:56.855Z,41.95
2022-08-18T09:08:56.516Z,40.53
2022-08-18T09:12:14.065Z,41.64
2022-08-18T09:15:19.779Z,40.74
2022-08-18T09:18:27.262Z,40.77
2022-08-18T09:21:35.421Z,40.29
2022-08-18T09:24:24.269Z,39.88
2022-08-18T09:28:09.776Z,39.89
2022-08-18T09:31:07.289Z,39.71
2022-08-18T09:33:45.949Z,39.61
2022-08-18T09:36:32.566Z,38.70
2022-08-18T09:42:50.121Z,39.06
2022-08-18T09:45:37.766Z,38.23
2022-08-18T09:48:28.396Z,36.04
2022-08-18T09:51:21.004Z,35.51
2022-08-18T09:54:01.024Z,35.13
2022-08-18T09:56:57.572Z,34.90
2022-08-18T09:59:40.663Z,35.10
2022-08-18T10:02:30.298Z,34.46
2022-08-18T10:05:42.010Z,34.89
2022-08-18T10:11:31.138Z,33.87
2022-08-18T10:14:33.430Z,33.49
2022-08-18T10:17:33.340Z,32.92
2022-08-18T10:20:23.919Z,34.46
2022-08-18T10:23:07.574Z,34.32
2022-08-18T10:25:45.885Z,35.71
2022-08-18T10:28:55.744Z,36.15
2022-08-18T10:31:31.185Z,35.77
2022-08-18T10:34:19.169Z,33.70
2022-08-18T10:36:59.072Z,33.73
2022-08-18T10:39:44.272Z,34.24
2022-08-18T10:42:37.439Z,33.88
2022-08-18T10:48:34.933Z,34.42
2022-08-18T10:51:57.884Z,34.05
2022-08-18T10:54:24.824Z,32.88
2022-08-18T10:57:19.378Z,32.52
2022-08-18T11:00:04.756Z,32.31
2022-08-18T11:02:46.702Z,32.07
2022-08-18T11:05:26.911Z,32.41
2022-08-18T11:13:40.574Z,33.53
2022-08-18T11:16:32.793Z,32.70
2022-08-18T11:19:11.412Z,33.39
2022-08-18T11:21:51.465Z,31.52
2022-08-18T11:24:28.815Z,31.77
2022-08-18T11:27:15.236Z,32.23
2022-08-18T11:29:41.380Z,32.26
2022-08-18T11:32:39.432Z,32.47
2022-08-18T11:35:19.859Z,33.30
2022-08-18T11:38:06.635Z,33.97
2022-08-18T11:43:41.420Z,34.07
2022-08-18T11:46:30.901Z,33.26
2022-08-18T11:49:06.415Z,33.69
2022-08-18T11:51:56.227Z,33.67
2022-08-18T11:54:50.497Z,33.19
2022-08-18T11:57:59.774Z,33.34
2022-08-18T12:00:49.894Z,33.39
2022-08-18T12:03:44.027Z,33.34
2022-08-18T12:06:21.503Z,32.97
2022-08-18T12:09:09.179Z,32.93
2022-08-18T12:11:55.512Z,33.74
2022-08-18T12:14:35.320Z,34.47
2022-08-18T12:17:09.439Z,34.44
2022-08-18T12:19:44.025Z,35.02
2022-08-18T12:22:22.810Z,34.29
2022-08-18T12:24:57.367Z,34.22
2022-08-18T12:27:33.017Z,33.44
2022-08-18T12:30:06.957Z,33.76
2022-08-18T12:32:49.247Z,33.63
2022-08-18T12:35:16.740Z,33.84
2022-08-18T12:38:13.916Z,33.90
2022-08-18T12:40:25.601Z,33.31
2022-08-18T12:42:59.093Z,33.32
2022-08-18T12:45:32.631Z,33.41
2022-08-18T12:50:54.684Z,33.18
2022-08-18T12:53:15.666Z,34.42
2022-08-18T12:55:50.002Z,34.83
2022-08-18T12:58:22.869Z,35.61
2022-08-18T13:00:56.438Z,35.12
2022-08-18T13:03:29.372Z,35.42
2022-08-18T13:06:04.387Z,35.19
2022-08-18T13:08:49.944Z,35.72
2022-08-18T13:11:23.670Z,36.37
2022-08-18T13:13:56.553Z,36.06
2022-08-18T13:16:39.032Z,36.05
2022-08-18T13:19:02.430Z,36.04
2022-08-18T13:21:40.901Z,36.46
2022-08-18T13:24:13.793Z,36.10
2022-08-18T13:26:48.795Z,36.54
2022-08-18T13:29:22.525Z,37.20
2022-08-18T13:31:58.519Z,36.75
2022-08-18T13:34:31.434Z,37.20
2022-08-18T13:37:04.297Z,37.31
2022-08-18T13:39:37.813Z,37.38
2022-08-18T13:42:21.583Z,37.50
2022-08-18T13:44:49.877Z,38.06
2022-08-18T13:47:23.451Z,37.45
2022-08-18T13:50:00.002Z,37.19
2022-08-18T13:52:34.386Z,37.22
2022-08-18T13:55:13.705Z,37.74
2022-08-18T13:57:49.996Z,37.93
2022-08-18T14:00:29.637Z,38.41
2022-08-18T14:03:00.381Z,38.27
2022-08-18T14:05:51.296Z,38.48
2022-08-18T14:08:19.257Z,38.55
2022-08-18T14:10:49.180Z,39.02
2022-08-18T14:13:24.984Z,39.51
2022-08-18T14:15:59.018Z,39.97
2022-08-18T14:18:32.503Z,39.84
2022-08-18T14:21:24.465Z,39.86
2022-08-18T14:24:16.939Z,40.21
2022-08-18T14:26:51.294Z,40.57
2022-08-18T14:29:46.891Z,40.85
2022-08-18T14:31:59.956Z,40.91
2022-08-18T14:34:34.185Z,40.91
2022-08-18T14:37:09.811Z,41.07
2022-08-18T14:39:42.889Z,41.17
2022-08-18T14:42:20.402Z,41.92
2022-08-18T14:44:54.914Z,42.00
2022-08-18T14:47:31.408Z,42.02
2022-08-18T14:50:04.168Z,41.87
2022-08-18T14:52:37.431Z,41.48
2022-08-18T14:55:12.653Z,41.54
2022-08-18T14:57:45.351Z,41.53
2022-08-18T15:00:20.865Z,41.41
2022-08-18T15:02:53.630Z,41.24
2022-08-18T15:05:28.392Z,41.56
2022-08-18T15:08:04.062Z,42.25
2022-08-18T15:10:39.175Z,42.26
2022-08-18T15:13:13.134Z,42.18
2022-08-18T15:15:51.187Z,42.68
2022-08-18T15:18:22.371Z,43.10
2022-08-18T15:21:19.595Z,43.04
2022-08-18T15:24:19.958Z,43.12
2022-08-18T15:26:39.902Z,43.18
2022-08-18T15:29:15.040Z,43.34
2022-08-18T15:31:49.729Z,42.95
2022-08-18T15:34:22.857Z,42.84
2022-08-18T15:36:57.950Z,42.76
2022-08-18T15:39:33.303Z,43.32
2022-08-18T15:42:10.889Z,43.31
2022-08-18T15:44:44.721Z,43.54
2022-08-18T15:47:20.935Z,43.75
2022-08-18T15:49:52.633Z,43.90
2022-08-18T15:52:26.689Z,44.03
2022-08-18T15:55:04.141Z,44.30
2022-08-18T15:57:40.294Z,43.74
2022-08-18T16:00:14.961Z,43.61
2022-08-18T16:02:56.159Z,43.88
2022-08-18T16:05:35.400Z,43.80
2022-08-18T16:08:10.413Z,43.98
2022-08-18T16:10:43.908Z,44.21
2022-08-18T16:13:17.038Z,44.35
2022-08-18T16:15:50.545Z,44.68
2022-08-18T16:18:23.127Z,44.61
2022-08-18T16:20:56.652Z,44.81
2022-08-18T16:23:29.327Z,44.83
2022-08-18T16:26:04.891Z,44.97
2022-08-18T16:28:37.650Z,45.00
2022-08-18T16:31:10.447Z,45.32
2022-08-18T16:33:43.978Z,45.53
2022-08-18T16:36:17.177Z,45.81
2022-08-18T16:38:49.685Z,46.05
2022-08-18T16:41:23.197Z,46.17
2022-08-18T16:43:57.465Z,46.19
2022-08-18T16:46:30.623Z,46.52
2022-08-18T16:49:04.881Z,46.82
2022-08-18T16:51:38.985Z,46.88
2022-08-18T16:54:11.429Z,47.17
2022-08-18T16:56:43.770Z,47.23
2022-08-18T16:59:33.918Z,47.40
2022-08-18T17:02:24.810Z,47.79
2022-08-18T17:04:59.408Z,48.06
2022-08-18T17:07:34.389Z,48.27
2022-08-18T17:10:07.795Z,48.54
2022-08-18T17:12:41.408Z,48.63
2022-08-18T17:15:15.381Z,49.02
2022-08-18T17:17:47.878Z,49.01
2022-08-18T17:20:21.810Z,49.12
2022-08-18T17:22:55.592Z,49.39
2022-08-18T17:25:28.042Z,49.58
2022-08-18T17:28:02.723Z,49.76
2022-08-18T17:30:40.523Z,49.73
2022-08-18T17:33:17.630Z,49.94
2022-08-18T17:35:51.350Z,50.46
2022-08-18T17:38:49.642Z,50.52
2022-08-18T17:41:23.893Z,50.73
2022-08-18T17:44:00.943Z,50.76
2022-08-18T17:46:37.717Z,50.86
2022-08-18T17:49:17.526Z,51.04
2022-08-18T17:51:55.388Z,51.45
2022-08-18T17:54:36.547Z,51.37
2022-08-18T17:57:24.187Z,51.39
2022-08-18T18:00:14.024Z,51.29
2022-08-18T18:02:48.202Z,51.12
2022-08-18T18:05:22.296Z,51.29
2022-08-18T18:07:58.797Z,51.46
2022-08-18T18:13:24.282Z,51.74
2022-08-18T18:16:01.471Z,51.83
2022-08-18T18:18:43.659Z,52.01
2022-08-18T18:21:23.327Z,52.33
2022-08-18T18:24:11.848Z,52.71
2022-08-18T18:26:49.929Z,53.04
2022-08-18T18:29:35.613Z,54.32
2022-08-18T18:32:11.306Z,56.03
2022-08-18T18:34:49.794Z,56.63
2022-08-18T18:37:33.679Z,57.12
2022-08-18T18:40:09.479Z,56.73
2022-08-18T18:42:42.575Z,56.70
2022-08-18T18:45:29.889Z,57.05
2022-08-18T18:48:48.204Z,56.50
2022-08-18T18:51:10.288Z,55.75
2022-08-18T18:53:59.323Z,55.84
2022-08-18T18:56:39.844Z,56.03
2022-08-18T18:59:46.159Z,55.93
2022-08-18T19:02:33.552Z,55.69
2022-08-18T19:05:22.055Z,55.80
2022-08-18T19:08:06.268Z,56.28
2022-08-18T19:10:49.859Z,56.00
2022-08-18T19:13:33.395Z,56.06
2022-08-18T19:16:23.915Z,55.87
2022-08-18T19:19:35.736Z,55.89
2022-08-18T19:22:03.940Z,55.87
2022-08-18T19:24:24.871Z,55.87
2022-08-18T19:27:01.128Z,56.02
2022-08-18T19:29:38.048Z,56.47
2022-08-18T19:32:18.352Z,57.04
2022-08-18T19:34:55.627Z,57.14
2022-08-18T19:37:32.482Z,57.61
2022-08-18T19:40:22.192Z,58.31
2022-08-18T19:46:22.090Z,58.91
2022-08-18T19:49:09.201Z,58.47
2022-08-18T19:51:42.999Z,58.52
2022-08-18T19:54:35.712Z,58.63
2022-08-18T19:57:34.890Z,58.62
2022-08-18T20:00:51.886Z,59.25
2022-08-18T20:03:48.413Z,60.05
2022-08-18T20:06:40.588Z,60.05
2022-08-18T20:09:47.416Z,60.05
2022-08-18T20:12:59.930Z,60.45
2022-08-18T20:15:32.672Z,60.45
2022-08-18T20:18:10.315Z,60.44
2022-08-18T20:20:42.857Z,60.63
2022-08-18T20:23:38.580Z,60.63
2022-08-18T20:26:16.113Z,61.23
2022-08-18T20:28:48.631Z,61.25
2022-08-18T20:31:21.021Z,61.73
2022-08-18T20:34:14.160Z,61.94
2022-08-18T20:36:47.965Z,62.19
2022-08-18T20:39:46.900Z,62.21
2022-08-18T20:42:36.630Z,62.08
2022-08-18T20:45:16.375Z,62.40
2022-08-18T20:48:19.249Z,62.51
2022-08-18T20:51:11.201Z,63.25
2022-08-18T20:54:01.579Z,63.06
2022-08-18T20:56:48.130Z,63.06
2022-08-18T20:59:25.478Z,63.62
2022-08-18T21:02:11.654Z,63.64
2022-08-18T21:04:52.312Z,64.02
2022-08-18T21:07:36.331Z,63.99
2022-08-18T21:10:22.149Z,63.96
2022-08-18T21:12:58.297Z,63.91
2022-08-18T21:15:37.326Z,64.15
2022-08-18T21:18:21.704Z,64.41
2022-08-18T21:20:58.657Z,64.76
2022-08-18T21:23:37.830Z,64.55
2022-08-18T21:26:15.175Z,64.70
2022-08-18T21:28:58.567Z,64.70
2022-08-18T21:31:44.305Z,64.26
2022-08-18T21:34:34.655Z,64.37
2022-08-18T21:37:10.398Z,65.13
2022-08-18T21:39:55.625Z,65.46
2022-08-18T21:42:32.752Z,65.04
2022-08-18T21:45:06.653Z,65.90
2022-08-18T21:47:43.091Z,65.90
2022-08-18T21:50:19.777Z,66.08
2022-08-18T21:53:01.787Z,65.88
2022-08-18T21:55:41.406Z,65.81
2022-08-18T21:58:33.905Z,65.55
2022-08-18T22:01:26.242Z,65.90
2022-08-18T22:04:04.216Z,66.26
2022-08-18T22:06:41.225Z,66.26
2022-08-18T22:09:36.462Z,66.51
2022-08-18T22:12:47.239Z,66.78
2022-08-18T22:15:34.395Z,67.12
2022-08-18T22:18:11.050Z,67.79
2022-08-18T22:20:58.986Z,67.82
2022-08-18T22:24:05.592Z,67.48
2022-08-18T22:26:38.659Z,67.48
2022-08-18T22:29:46.511Z,67.79
2022-08-18T22:32:20.657Z,67.91
2022-08-18T22:34:53.717Z,67.91
2022-08-18T22:37:30.491Z,68.57
2022-08-18T22:40:11.266Z,68.47
2022-08-18T22:42:44.213Z,68.88
2022-08-18T22:45:16.853Z,68.86
2022-08-18T22:47:49.559Z,68.83
2022-08-18T22:50:23.378Z,68.83
2022-08-18T22:52:56.060Z,69.13
2022-08-18T22:55:29.743Z,69.27
2022-08-18T22:58:02.487Z,69.70
2022-08-18T23:00:36.341Z,70.05
2022-08-18T23:03:09.540Z,69.80
2022-08-18T23:05:42.652Z,69.62
2022-08-18T23:08:15.479Z,69.67
2022-08-18T23:10:48.172Z,69.77
2022-08-18T23:13:21.338Z,69.83
2022-08-18T23:16:12.975Z,70.07
2022-08-18T23:18:33.114Z,70.27
2022-08-18T23:21:07.239Z,70.68
2022-08-18T23:23:40.967Z,71.26
2022-08-18T23:26:13.570Z,71.35
2022-08-18T23:28:48.740Z,71.36
2022-08-18T23:31:23.195Z,71.67
2022-08-18T23:33:55.703Z,71.22
2022-08-18T23:36:30.746Z,71.85
2022-08-18T23:39:03.428Z,71.57
2022-08-18T23:41:37.052Z,71.20
2022-08-18T23:44:09.600Z,71.33
2022-08-18T23:46:45.384Z,71.38
2022-08-18T23:49:17.904Z,71.33
2022-08-18T23:51:53.782Z,71.28
2022-08-18T23:54:34.451Z,71.12
2022-08-18T23:59:39.681Z,71.78
